Time;durP1;ratioP1;P1;durP2;ratioP2;P2;SDS_P1;SDS_P2;PMS_P1;PMS_P2;Temp;Humidity;BMP_temperature;BMP_pressure;BME280_temperature;BME280_humidity;BME280_pressure;Samples;Min_cycle;Max_cycle;Signal;HPM_P1;HPM_P2
2023/04/21 00:00:19;;;;;;;10.80;6.20;;;11.00;99.90;;;;;;4970803;28;20225;-79
2023/04/21 00:02:45;;;;;;;9.93;6.70;;;10.90;99.90;;;;;;4980188;28;20292;-77
2023/04/21 00:05:12;;;;;;;15.00;6.60;;;10.80;99.90;;;;;;4980196;28;20210;-74
2023/04/21 00:07:39;;;;;;;19.83;7.20;;;10.70;99.90;;;;;;4980105;28;20206;-76
2023/04/21 00:10:09;;;;;;;9.77;6.27;;;10.70;99.90;;;;;;4977948;28;20241;-76
2023/04/21 00:12:35;;;;;;;15.07;6.67;;;10.80;99.90;;;;;;4979463;28;20201;-77
2023/04/21 00:15:01;;;;;;;13.00;6.60;;;10.80;99.90;;;;;;4979846;28;20207;-77
2023/04/21 00:17:26;;;;;;;13.53;5.93;;;10.90;99.90;;;;;;4984993;28;20219;-76
2023/04/21 00:19:52;;;;;;;17.37;7.13;;;10.90;99.90;;;;;;4979986;28;20648;-76
2023/04/21 00:22:18;;;;;;;10.70;6.43;;;10.80;99.90;;;;;;4978212;28;20234;-77
2023/04/21 00:24:43;;;;;;;13.43;7.43;;;10.80;99.90;;;;;;4970331;28;20234;-75
2023/04/21 00:27:10;;;;;;;14.57;6.37;;;10.80;99.90;;;;;;4979723;28;20213;-75
2023/04/21 00:29:35;;;;;;;10.60;6.27;;;10.90;99.90;;;;;;4975002;28;20205;-77
2023/04/21 00:32:02;;;;;;;10.77;6.97;;;10.80;99.90;;;;;;4979133;28;20306;-75
2023/04/21 00:34:28;;;;;;;13.63;6.73;;;10.80;99.90;;;;;;4974860;28;20230;-76
2023/04/21 00:36:54;;;;;;;14.60;7.33;;;10.70;99.90;;;;;;4977402;28;20788;-75
2023/04/21 00:39:19;;;;;;;14.73;7.37;;;10.70;99.90;;;;;;4975071;28;20572;-76
2023/04/21 00:41:45;;;;;;;11.67;7.37;;;10.60;99.90;;;;;;4980633;28;20725;-77
2023/04/21 00:44:10;;;;;;;13.20;6.93;;;10.60;99.90;;;;;;4959141;28;20213;-76
2023/04/21 00:46:37;;;;;;;15.80;8.10;;;10.50;99.90;;;;;;4974537;28;20337;-76
2023/04/21 00:49:05;;;;;;;10.37;7.03;;;10.30;99.90;;;;;;4977412;28;20207;-76
2023/04/21 00:51:32;;;;;;;10.17;7.10;;;10.20;99.90;;;;;;4969752;28;20304;-76
2023/04/21 00:53:59;;;;;;;9.17;7.00;;;10.30;99.90;;;;;;4977718;28;20712;-74
2023/04/21 00:56:26;;;;;;;16.23;8.07;;;10.30;99.90;;;;;;4979203;28;21041;-76
2023/04/21 00:58:53;;;;;;;10.40;7.27;;;10.20;99.90;;;;;;4974370;28;20659;-75
2023/04/21 01:01:18;;;;;;;13.03;8.30;;;10.10;99.90;;;;;;4950082;28;20209;-78
2023/04/21 01:03:46;;;;;;;12.73;8.30;;;10.00;99.90;;;;;;4968753;28;20224;-77
2023/04/21 01:06:12;;;;;;;12.60;7.50;;;10.00;99.90;;;;;;4968974;28;20830;-76
2023/04/21 01:08:38;;;;;;;11.27;8.27;;;9.90;99.90;;;;;;4972152;28;20192;-76
2023/04/21 01:11:13;;;;;;;12.57;7.57;;;9.80;99.90;;;;;;4965893;28;20194;-76
2023/04/21 01:13:39;;;;;;;11.73;7.73;;;9.70;99.90;;;;;;4965606;28;20233;-76
2023/04/21 01:16:07;;;;;;;13.80;7.77;;;9.70;99.90;;;;;;4976729;28;20202;-76
2023/04/21 01:18:33;;;;;;;14.57;8.47;;;9.80;99.90;;;;;;4970117;28;20653;-76
2023/04/21 01:20:58;;;;;;;17.30;8.73;;;9.80;99.90;;;;;;4968348;28;20280;-77
2023/04/21 01:23:24;;;;;;;12.93;7.43;;;9.80;99.90;;;;;;4966984;28;20204;-77
2023/04/21 01:25:50;;;;;;;14.87;7.70;;;9.80;99.90;;;;;;4969154;28;20196;-78
2023/04/21 01:28:24;;;;;;;10.27;7.43;;;10.00;99.90;;;;;;4978251;28;20205;-75
2023/04/21 01:30:50;;;;;;;9.87;8.77;;;10.10;99.90;;;;;;4981963;28;20205;-76
2023/04/21 01:33:17;;;;;;;10.37;8.10;;;10.10;99.90;;;;;;4971664;28;20717;-76
2023/04/21 01:35:43;;;;;;;11.60;8.47;;;10.20;99.90;;;;;;4979931;28;20258;-76
2023/04/21 01:38:09;;;;;;;13.37;7.87;;;10.20;99.90;;;;;;4975644;28;20222;-75
2023/04/21 01:40:35;;;;;;;13.30;8.80;;;10.20;99.90;;;;;;4974079;28;20693;-77
2023/04/21 01:43:02;;;;;;;11.43;8.97;;;10.30;99.90;;;;;;4978076;28;20206;-78
2023/04/21 01:45:28;;;;;;;12.80;8.60;;;10.20;99.90;;;;;;4977712;28;20198;-77
2023/04/21 01:47:54;;;;;;;11.10;8.90;;;10.10;99.90;;;;;;4976691;28;20290;-76
2023/04/21 01:50:19;;;;;;;12.27;8.33;;;10.00;99.90;;;;;;4978543;28;20930;-78
2023/04/21 01:52:45;;;;;;;18.47;9.67;;;9.90;99.90;;;;;;4977744;28;20197;-76
2023/04/21 01:55:11;;;;;;;13.00;9.63;;;9.90;99.90;;;;;;4976458;28;20622;-77
2023/04/21 01:57:36;;;;;;;10.93;8.77;;;9.80;99.90;;;;;;4978011;28;20217;-78
2023/04/21 02:00:03;;;;;;;15.23;8.73;;;9.90;99.90;;;;;;4975318;28;20617;-77
2023/04/21 02:02:29;;;;;;;11.33;8.30;;;10.00;99.90;;;;;;4969592;28;20239;-77
2023/04/21 02:04:54;;;;;;;12.93;8.73;;;10.00;99.90;;;;;;4977942;28;20308;-77
2023/04/21 02:07:20;;;;;;;10.40;9.10;;;10.00;99.90;;;;;;4970534;28;20213;-77
2023/04/21 02:09:45;;;;;;;13.57;9.37;;;10.00;99.90;;;;;;4954647;28;20210;-75
2023/04/21 02:12:11;;;;;;;15.37;9.67;;;10.10;99.90;;;;;;4973570;28;20233;-76
2023/04/21 02:14:37;;;;;;;15.43;8.80;;;10.10;99.90;;;;;;4978176;28;20214;-80
2023/04/21 02:17:06;;;;;;;14.03;9.57;;;10.10;99.90;;;;;;4977681;28;20525;-76
2023/04/21 02:19:31;;;;;;;14.13;8.83;;;10.10;99.90;;;;;;4979803;28;20197;-76
2023/04/21 02:21:57;;;;;;;15.93;9.20;;;10.10;99.90;;;;;;4971533;28;20313;-75
2023/04/21 02:24:22;;;;;;;14.27;9.10;;;10.00;99.90;;;;;;4958702;28;20672;-76
2023/04/21 02:26:48;;;;;;;12.17;9.13;;;9.90;99.90;;;;;;4977745;28;20663;-77
2023/04/21 02:29:14;;;;;;;16.97;9.73;;;10.00;99.90;;;;;;4977818;28;20229;-76
2023/04/21 02:31:40;;;;;;;19.40;9.77;;;10.00;99.90;;;;;;4976719;28;20213;-77
2023/04/21 02:34:06;;;;;;;13.37;9.20;;;9.90;99.90;;;;;;4966789;28;20233;-77
2023/04/21 02:36:32;;;;;;;12.50;9.87;;;9.80;99.90;;;;;;4968319;28;20565;-76
2023/04/21 02:38:57;;;;;;;13.47;10.20;;;9.70;99.90;;;;;;4973273;28;20877;-77
2023/04/21 02:41:23;;;;;;;14.10;9.83;;;9.70;99.90;;;;;;4966728;28;20190;-76
2023/04/21 02:43:49;;;;;;;12.03;9.43;;;9.70;99.90;;;;;;4966682;28;20308;-76
2023/04/21 02:46:14;;;;;;;15.70;10.27;;;9.80;99.90;;;;;;4967171;28;20198;-76
2023/04/21 02:48:40;;;;;;;12.30;11.00;;;9.90;99.90;;;;;;4967311;28;20194;-75
2023/04/21 02:51:11;;;;;;;12.37;10.97;;;9.80;99.90;;;;;;4967336;28;20459;-76
2023/04/21 02:53:36;;;;;;;14.73;12.03;;;9.80;99.90;;;;;;4972220;28;20206;-75
2023/04/21 02:56:03;;;;;;;17.23;12.53;;;9.90;99.90;;;;;;4970014;28;20224;-75
2023/04/21 02:58:29;;;;;;;13.57;10.80;;;9.80;99.90;;;;;;4971686;28;20214;-77
2023/04/21 03:00:55;;;;;;;15.43;9.57;;;9.90;99.90;;;;;;4968006;28;20561;-76
2023/04/21 03:03:21;;;;;;;11.17;9.97;;;9.90;99.90;;;;;;4968253;28;20201;-75
2023/04/21 03:05:46;;;;;;;12.03;9.50;;;9.90;99.90;;;;;;4968041;28;20301;-76
2023/04/21 03:08:12;;;;;;;14.37;9.80;;;9.90;99.90;;;;;;4967915;28;20325;-76
2023/04/21 03:10:38;;;;;;;12.43;9.60;;;10.00;99.90;;;;;;4949266;28;20264;-75
2023/04/21 03:13:03;;;;;;;16.43;9.43;;;10.00;99.90;;;;;;4967122;28;20241;-77
2023/04/21 03:15:31;;;;;;;13.63;10.23;;;9.90;99.90;;;;;;4967244;28;20217;-76
2023/04/21 03:17:57;;;;;;;14.60;9.23;;;9.90;99.90;;;;;;4970106;28;21494;-77
2023/04/21 03:20:22;;;;;;;11.37;10.23;;;9.90;99.90;;;;;;4967623;28;20197;-77
2023/04/21 03:22:48;;;;;;;15.83;9.67;;;9.80;99.90;;;;;;4973699;28;20736;-77
2023/04/21 03:25:13;;;;;;;10.67;8.57;;;9.80;99.90;;;;;;4977679;28;20668;-77
2023/04/21 03:27:39;;;;;;;13.20;9.87;;;9.70;99.90;;;;;;4976968;28;20210;-77
2023/04/21 03:30:05;;;;;;;13.80;10.10;;;9.80;99.90;;;;;;4979687;28;20210;-77
2023/04/21 03:32:31;;;;;;;14.07;10.23;;;9.80;99.90;;;;;;4980266;28;20273;-77
2023/04/21 03:34:57;;;;;;;12.37;10.20;;;9.80;99.90;;;;;;4980346;28;20234;-76
2023/04/21 03:37:22;;;;;;;12.03;9.90;;;9.80;99.90;;;;;;4974997;28;20213;-76
2023/04/21 03:39:48;;;;;;;11.10;9.63;;;9.70;99.90;;;;;;4969890;28;20206;-76
2023/04/21 03:42:13;;;;;;;14.53;10.60;;;9.60;99.90;;;;;;4952719;28;20280;-76
2023/04/21 03:44:39;;;;;;;12.40;9.70;;;9.50;99.90;;;;;;4970682;28;20568;-77
2023/04/21 03:47:04;;;;;;;15.83;10.37;;;9.50;99.90;;;;;;4970536;28;20583;-79
2023/04/21 03:49:32;;;;;;;15.43;11.40;;;9.40;99.90;;;;;;4973088;28;20194;-76
2023/04/21 03:51:58;;;;;;;19.00;11.60;;;9.30;99.90;;;;;;4966980;28;20269;-77
2023/04/21 03:54:23;;;;;;;14.13;11.73;;;9.30;99.90;;;;;;4970746;28;20211;-76
2023/04/21 03:56:48;;;;;;;15.03;11.60;;;9.30;99.90;;;;;;4970868;28;20221;-77
2023/04/21 03:59:14;;;;;;;15.77;11.43;;;9.40;99.90;;;;;;4971643;28;20665;-77
2023/04/21 04:01:41;;;;;;;16.13;12.07;;;9.40;99.90;;;;;;4970727;28;20201;-77
2023/04/21 04:04:06;;;;;;;20.87;12.67;;;9.40;99.90;;;;;;4976601;28;20202;-76
2023/04/21 04:06:32;;;;;;;18.40;11.30;;;9.30;99.90;;;;;;4970088;28;20206;-76
2023/04/21 04:08:57;;;;;;;14.00;11.43;;;9.40;99.90;;;;;;4970314;28;20936;-76
2023/04/21 04:11:23;;;;;;;21.00;11.37;;;9.40;99.90;;;;;;4968957;28;20209;-77
2023/04/21 04:13:49;;;;;;;16.47;11.37;;;9.40;99.90;;;;;;4973486;28;20206;-76
2023/04/21 04:16:14;;;;;;;18.83;12.70;;;9.50;99.90;;;;;;4963740;28;20217;-75
2023/04/21 04:18:40;;;;;;;17.83;12.10;;;9.60;99.90;;;;;;4953122;28;20258;-76
2023/04/21 04:21:09;;;;;;;19.00;11.77;;;9.60;99.90;;;;;;4970764;28;20672;-77
2023/04/21 04:23:34;;;;;;;14.30;10.43;;;9.50;99.90;;;;;;4950895;28;20205;-76
2023/04/21 04:26:04;;;;;;;14.50;11.07;;;9.50;99.90;;;;;;4970227;28;20225;-77
2023/04/21 04:28:30;;;;;;;15.73;11.77;;;9.50;99.90;;;;;;4969052;28;20205;-77
2023/04/21 04:30:55;;;;;;;13.97;10.47;;;9.40;99.90;;;;;;4969229;28;20589;-78
2023/04/21 04:33:21;;;;;;;19.87;12.53;;;9.50;99.90;;;;;;4972725;28;20238;-76
2023/04/21 04:35:46;;;;;;;19.30;12.43;;;9.70;99.90;;;;;;4971957;28;20205;-77
2023/04/21 04:38:15;;;;;;;15.00;12.07;;;9.60;99.90;;;;;;4969503;28;20208;-77
2023/04/21 04:40:41;;;;;;;17.20;11.87;;;9.70;99.90;;;;;;4965038;28;20202;-76
2023/04/21 04:43:07;;;;;;;14.70;12.50;;;9.70;99.90;;;;;;4969135;28;20203;-74
2023/04/21 04:45:33;;;;;;;17.77;13.37;;;9.70;99.90;;;;;;4969337;28;20205;-74
2023/04/21 04:47:59;;;;;;;20.47;13.60;;;9.60;99.90;;;;;;4966006;28;20257;-73
2023/04/21 04:50:24;;;;;;;18.20;11.93;;;9.60;99.90;;;;;;4968303;28;20762;-74
2023/04/21 04:52:50;;;;;;;21.17;12.20;;;9.60;99.90;;;;;;4966767;28;20213;-73
2023/04/21 04:55:16;;;;;;;18.40;12.73;;;9.70;99.90;;;;;;4973361;28;20212;-75
2023/04/21 04:57:41;;;;;;;12.37;11.13;;;9.70;99.90;;;;;;4967674;28;20230;-73
2023/04/21 05:00:10;;;;;;;14.93;12.23;;;9.80;99.90;;;;;;4968016;28;20190;-74
2023/04/21 05:02:36;;;;;;;11.27;10.00;;;9.90;99.90;;;;;;4968532;28;20218;-74
2023/04/21 05:05:02;;;;;;;14.53;9.93;;;9.80;99.90;;;;;;4966757;28;20234;-74
2023/04/21 05:07:28;;;;;;;13.47;10.40;;;9.90;99.90;;;;;;4969482;28;20190;-76
2023/04/21 05:09:53;;;;;;;10.73;9.67;;;10.00;99.90;;;;;;4969360;28;20269;-75
2023/04/21 05:12:19;;;;;;;15.63;11.60;;;9.90;99.90;;;;;;4969239;28;20658;-77
2023/04/21 05:14:44;;;;;;;13.27;11.73;;;10.10;99.90;;;;;;4972992;28;20269;-77
2023/04/21 05:17:10;;;;;;;12.97;10.37;;;10.10;99.90;;;;;;4969241;28;20214;-78
2023/04/21 05:19:36;;;;;;;15.03;11.17;;;10.20;99.90;;;;;;4967760;28;20779;-78
2023/04/21 05:22:02;;;;;;;17.30;11.17;;;10.20;99.90;;;;;;4968471;28;20203;-82
2023/04/21 05:24:28;;;;;;;14.20;11.13;;;10.30;99.90;;;;;;4970033;28;21633;-76
2023/04/21 05:26:53;;;;;;;13.23;10.17;;;10.30;99.90;;;;;;4975962;28;20830;-82
2023/04/21 05:29:19;;;;;;;12.00;10.43;;;10.30;99.90;;;;;;4970324;28;20206;-78
2023/04/21 05:31:45;;;;;;;14.30;9.87;;;10.30;99.90;;;;;;4964022;28;20214;-77
2023/04/21 05:34:10;;;;;;;13.73;10.63;;;10.40;99.90;;;;;;4968390;28;20247;-81
2023/04/21 05:36:36;;;;;;;12.23;9.57;;;10.40;99.90;;;;;;4978116;28;20713;-78
2023/04/21 05:39:01;;;;;;;13.00;10.37;;;10.50;99.90;;;;;;4968639;28;20194;-74
2023/04/21 05:41:27;;;;;;;15.50;10.97;;;10.60;99.90;;;;;;4968936;28;20305;-75
2023/04/21 05:43:52;;;;;;;14.20;9.90;;;10.70;99.90;;;;;;4976493;28;20195;-78
2023/04/21 05:46:18;;;;;;;12.73;10.63;;;10.70;99.90;;;;;;4972949;28;20563;-78
2023/04/21 05:48:43;;;;;;;13.53;10.67;;;10.90;99.90;;;;;;4977400;28;20200;-78
2023/04/21 05:51:10;;;;;;;10.63;9.20;;;10.90;99.90;;;;;;4959913;28;20868;-78
2023/04/21 05:53:39;;;;;;;12.23;10.73;;;11.00;99.90;;;;;;4960059;28;20289;-76
2023/04/21 05:56:07;;;;;;;14.73;10.80;;;11.10;99.90;;;;;;4970873;28;20207;-77
2023/04/21 05:58:33;;;;;;;12.40;10.70;;;11.10;99.90;;;;;;4973738;28;20223;-75
2023/04/21 06:00:58;;;;;;;12.47;11.13;;;11.20;99.90;;;;;;4976491;28;20215;-77
2023/04/21 06:03:24;;;;;;;13.47;12.00;;;11.30;99.90;;;;;;4976866;28;20246;-76
2023/04/21 06:05:54;;;;;;;17.27;10.20;;;11.40;99.90;;;;;;4981261;28;20197;-77
2023/04/21 06:08:19;;;;;;;12.57;10.03;;;11.50;99.90;;;;;;4972110;28;20194;-77
2023/04/21 06:10:45;;;;;;;13.77;9.77;;;11.60;99.90;;;;;;4977573;28;20669;-77
2023/04/21 06:13:17;;;;;;;13.23;11.07;;;11.70;99.90;;;;;;4960376;28;20849;-81
2023/04/21 06:15:43;;;;;;;11.67;9.77;;;11.70;99.90;;;;;;4977140;28;20214;-79
2023/04/21 06:18:08;;;;;;;12.00;10.37;;;11.90;99.90;;;;;;4971723;28;20578;-79
2023/04/21 06:20:34;;;;;;;13.80;10.53;;;11.90;99.90;;;;;;4951194;28;20211;-79
2023/04/21 06:23:00;;;;;;;10.30;9.30;;;12.10;99.90;;;;;;4969071;28;20200;-78
2023/04/21 06:25:25;;;;;;;11.43;10.13;;;12.20;99.90;;;;;;4970006;28;20591;-78
2023/04/21 06:27:51;;;;;;;16.77;10.37;;;12.30;99.90;;;;;;4970240;28;20675;-77
2023/04/21 06:30:16;;;;;;;15.50;10.43;;;12.40;99.90;;;;;;4968536;28;20208;-77
2023/04/21 06:32:44;;;;;;;14.33;11.00;;;12.40;99.90;;;;;;4970260;28;20227;-79
2023/04/21 06:35:10;;;;;;;14.57;10.57;;;12.50;99.90;;;;;;4966043;28;20574;-66
2023/04/21 06:37:35;;;;;;;10.60;9.50;;;12.60;99.90;;;;;;4969244;28;20230;-66
2023/04/21 06:40:01;;;;;;;13.73;9.93;;;12.80;99.90;;;;;;4964372;28;20203;-67
2023/04/21 06:42:26;;;;;;;11.03;9.77;;;12.90;99.90;;;;;;4964371;28;20241;-67
2023/04/21 06:44:52;;;;;;;11.97;10.50;;;13.00;99.90;;;;;;4966421;28;20231;-64
2023/04/21 06:47:18;;;;;;;12.60;11.10;;;13.00;99.90;;;;;;4964441;28;20216;-64
2023/04/21 06:49:43;;;;;;;12.40;10.57;;;13.10;99.90;;;;;;4966052;28;20856;-66
2023/04/21 06:52:09;;;;;;;12.90;11.03;;;13.10;99.90;;;;;;4965962;28;20227;-66
2023/04/21 06:54:34;;;;;;;10.43;9.30;;;13.20;99.90;;;;;;4965758;28;20569;-66
2023/04/21 06:57:00;;;;;;;14.93;10.07;;;13.30;99.90;;;;;;4967093;28;20212;-69
2023/04/21 06:59:25;;;;;;;13.50;11.13;;;13.40;99.90;;;;;;4971104;28;20594;-64
2023/04/21 07:01:51;;;;;;;11.70;9.70;;;13.40;99.90;;;;;;4970373;28;20206;-67
2023/04/21 07:04:20;;;;;;;14.67;10.13;;;13.30;99.90;;;;;;4966176;28;20189;-68
2023/04/21 07:06:47;;;;;;;10.90;9.47;;;13.40;99.90;;;;;;4968847;28;20205;-68
2023/04/21 07:09:13;;;;;;;11.87;10.10;;;13.50;99.90;;;;;;4970712;28;20240;-67
2023/04/21 07:11:38;;;;;;;13.37;10.77;;;13.60;99.90;;;;;;4969281;28;20231;-65
2023/04/21 07:14:05;;;;;;;16.57;10.77;;;13.70;99.90;;;;;;4968494;28;20220;-78
2023/04/21 07:16:30;;;;;;;11.57;10.37;;;13.90;99.80;;;;;;4970645;28;20615;-64
2023/04/21 07:18:56;;;;;;;15.83;10.83;;;14.00;99.20;;;;;;4952735;28;20197;-65
2023/04/21 07:21:22;;;;;;;11.63;9.97;;;14.10;98.90;;;;;;4967141;28;20555;-65
2023/04/21 07:23:47;;;;;;;14.37;10.47;;;14.10;98.80;;;;;;4969376;28;20576;-73
2023/04/21 07:26:13;;;;;;;12.30;10.07;;;14.20;98.90;;;;;;4970438;28;20211;-77
2023/04/21 07:28:39;;;;;;;13.13;9.57;;;14.40;99.00;;;;;;4949843;28;20675;-68
2023/04/21 07:31:05;;;;;;;11.33;9.70;;;14.50;99.50;;;;;;4966796;28;20727;-67
2023/04/21 07:33:30;;;;;;;11.07;9.33;;;14.50;99.20;;;;;;4968995;28;20241;-66
2023/04/21 07:35:56;;;;;;;12.37;9.20;;;14.60;99.70;;;;;;4970337;28;20204;-66
2023/04/21 07:38:21;;;;;;;10.37;9.23;;;14.70;99.40;;;;;;4970299;28;20905;-66
2023/04/21 07:40:47;;;;;;;10.63;9.63;;;14.90;99.60;;;;;;4968557;28;20201;-74
2023/04/21 07:43:13;;;;;;;10.57;9.57;;;15.00;98.60;;;;;;4970398;28;20247;-81
2023/04/21 07:45:38;;;;;;;11.97;9.77;;;15.10;98.60;;;;;;4969313;28;20410;-82
2023/04/21 07:48:06;;;;;;;12.93;10.93;;;15.20;98.20;;;;;;4971668;28;20215;-82
2023/04/21 07:50:32;;;;;;;11.67;9.50;;;15.20;98.00;;;;;;4968889;28;20210;-82
2023/04/21 07:52:57;;;;;;;14.40;9.20;;;15.30;98.20;;;;;;4975087;28;20201;-83
2023/04/21 07:55:23;;;;;;;12.83;9.73;;;15.30;97.20;;;;;;4970180;28;20263;-83
2023/04/21 07:57:48;;;;;;;11.90;9.63;;;15.30;96.70;;;;;;4967443;28;20491;-82
2023/04/21 08:00:14;;;;;;;10.90;9.40;;;15.30;97.50;;;;;;4979365;28;20209;-83
2023/04/21 08:02:40;;;;;;;12.47;9.47;;;15.30;97.40;;;;;;4974705;28;20251;-87
2023/04/21 08:05:06;;;;;;;12.30;9.67;;;15.30;97.20;;;;;;4979608;28;20189;-89
2023/04/21 08:07:32;;;;;;;12.73;9.70;;;15.40;97.30;;;;;;4983757;28;20296;-89
2023/04/21 08:09:59;;;;;;;11.67;9.43;;;15.50;96.60;;;;;;4973489;28;20198;-81
2023/04/21 08:12:24;;;;;;;11.60;9.20;;;15.70;95.80;;;;;;4970855;28;20204;-80
2023/04/21 08:14:50;;;;;;;10.40;8.70;;;15.70;95.30;;;;;;4974319;28;20201;-82
2023/04/21 08:17:16;;;;;;;13.93;10.33;;;15.80;95.20;;;;;;4967631;28;20213;-81
2023/04/21 08:19:41;;;;;;;14.47;9.77;;;15.90;94.50;;;;;;4972820;28;20329;-86
2023/04/21 08:22:08;;;;;;;11.67;9.97;;;15.80;94.10;;;;;;4976024;28;20199;-81
2023/04/21 08:24:34;;;;;;;15.77;8.40;;;15.90;94.50;;;;;;4978452;28;20228;-86
2023/04/21 08:27:01;;;;;;;20.37;11.57;;;16.00;94.20;;;;;;4972622;28;20270;-76
2023/04/21 08:29:26;;;;;;;14.37;10.63;;;16.10;94.40;;;;;;4970122;28;20200;-77
2023/04/21 08:31:52;;;;;;;16.73;10.60;;;16.20;94.70;;;;;;4970133;28;20208;-77
2023/04/21 08:34:18;;;;;;;13.47;9.70;;;16.30;94.70;;;;;;4969360;28;20228;-77
2023/04/21 08:36:45;;;;;;;12.07;9.50;;;16.40;93.90;;;;;;4969894;28;20220;-81
2023/04/21 08:39:12;;;;;;;10.10;8.37;;;16.40;94.10;;;;;;4979664;28;20188;-78
2023/04/21 08:41:40;;;;;;;12.20;9.63;;;16.50;93.60;;;;;;4979723;28;20259;-79
2023/04/21 08:44:05;;;;;;;10.73;8.83;;;16.70;92.50;;;;;;4978771;28;20200;-78
2023/04/21 08:46:32;;;;;;;13.40;9.23;;;16.70;92.40;;;;;;4966632;28;20202;-77
2023/04/21 08:48:58;;;;;;;9.53;8.60;;;16.70;91.60;;;;;;4969467;28;20532;-76
2023/04/21 08:51:26;;;;;;;10.83;9.73;;;16.80;91.90;;;;;;4973395;28;20927;-78
2023/04/21 08:53:54;;;;;;;11.27;8.57;;;16.90;92.00;;;;;;4978969;28;20490;-77
2023/04/21 08:56:19;;;;;;;9.80;8.47;;;16.90;91.50;;;;;;4973677;28;20280;-80
2023/04/21 08:58:44;;;;;;;12.17;8.67;;;17.00;91.30;;;;;;4975874;28;20650;-80
2023/04/21 09:01:10;;;;;;;11.87;8.30;;;17.00;91.00;;;;;;4977957;28;20672;-79
2023/04/21 09:03:36;;;;;;;10.47;9.37;;;17.00;91.40;;;;;;4978697;28;20351;-79
2023/04/21 09:06:04;;;;;;;11.30;8.93;;;17.20;91.00;;;;;;4975504;28;20292;-78
2023/04/21 09:08:31;;;;;;;12.00;8.03;;;17.30;91.00;;;;;;4951131;28;20209;-80
2023/04/21 09:10:58;;;;;;;13.07;7.43;;;17.30;90.30;;;;;;4978155;28;20279;-78
2023/04/21 09:13:31;;;;;;;10.83;7.87;;;17.30;89.20;;;;;;4980281;28;20220;-78
2023/04/21 09:15:58;;;;;;;12.17;8.23;;;17.50;89.40;;;;;;4977248;28;20262;-76
2023/04/21 09:18:25;;;;;;;9.33;8.33;;;17.60;85.90;;;;;;4968847;28;20268;-80
2023/04/21 09:21:04;;;;;;;13.10;7.87;;;17.60;88.20;;;;;;4977929;28;20355;-78
2023/04/21 09:23:30;;;;;;;13.60;7.90;;;17.80;88.90;;;;;;4966652;28;20197;-80
2023/04/21 09:25:55;;;;;;;9.73;8.73;;;17.90;89.20;;;;;;4966410;28;20212;-78
2023/04/21 09:28:21;;;;;;;9.73;8.70;;;17.90;85.00;;;;;;4967963;28;20213;-80
2023/04/21 09:30:54;;;;;;;13.57;8.83;;;17.80;85.40;;;;;;4968723;28;20632;-78
2023/04/21 09:33:20;;;;;;;9.30;8.50;;;17.90;86.10;;;;;;4966638;28;20241;-77
2023/04/21 09:35:46;;;;;;;8.80;7.93;;;17.90;87.00;;;;;;4974858;28;20204;-78
2023/04/21 09:38:12;;;;;;;8.97;8.07;;;18.00;86.60;;;;;;4978113;28;20216;-78
2023/04/21 09:40:39;;;;;;;12.03;7.70;;;18.10;86.50;;;;;;4973296;28;20256;-79
2023/04/21 09:43:05;;;;;;;8.73;7.77;;;18.30;87.60;;;;;;4966601;28;20200;-76
2023/04/21 09:45:32;;;;;;;10.33;8.17;;;18.40;85.90;;;;;;4966776;28;20554;-78
2023/04/21 09:48:00;;;;;;;11.77;8.00;;;18.40;84.90;;;;;;4978072;28;20201;-77
2023/04/21 09:50:26;;;;;;;15.47;10.20;;;18.50;87.30;;;;;;4969924;28;20196;-76
2023/04/21 09:52:55;;;;;;;9.57;8.37;;;18.50;86.40;;;;;;4966258;28;20202;-77
2023/04/21 09:55:30;;;;;;;8.97;7.90;;;18.60;84.30;;;;;;4967039;28;20545;-76
2023/04/21 09:57:58;;;;;;;10.20;7.67;;;18.70;83.10;;;;;;4970783;28;20212;-75
2023/04/21 10:00:27;;;;;;;10.50;7.17;;;18.70;82.00;;;;;;4977181;28;20666;-76
2023/04/21 10:02:54;;;;;;;9.57;8.17;;;18.80;81.90;;;;;;4968411;28;20255;-73
2023/04/21 10:05:19;;;;;;;8.07;7.17;;;18.80;80.50;;;;;;4968510;28;20197;-77
2023/04/21 10:07:46;;;;;;;18.73;7.53;;;18.90;79.60;;;;;;4969145;28;20212;-77
2023/04/21 10:10:27;;;;;;;9.23;8.20;;;19.00;79.60;;;;;;4964065;28;20206;-80
2023/04/21 10:12:53;;;;;;;34.63;17.07;;;19.10;79.80;;;;;;4969250;28;20691;-83
2023/04/21 10:15:48;;;;;;;12.67;8.27;;;18.90;78.20;;;;;;4966266;28;20206;-78
2023/04/21 10:18:21;;;;;;;7.77;6.97;;;19.00;79.00;;;;;;4951197;28;20714;-79
2023/04/21 10:20:54;;;;;;;12.60;8.30;;;19.00;78.10;;;;;;4975746;28;20196;-77
2023/04/21 10:23:27;;;;;;;10.90;8.03;;;19.10;76.90;;;;;;4967891;28;20189;-79
2023/04/21 10:26:00;;;;;;;7.83;7.10;;;19.30;78.20;;;;;;4966311;28;20287;-78
2023/04/21 10:28:39;;;;;;;8.70;7.40;;;19.50;79.00;;;;;;4966106;28;20241;-78
2023/04/21 10:31:21;;;;;;;7.90;6.83;;;19.70;79.20;;;;;;4965847;28;20202;-80
2023/04/21 10:34:07;;;;;;;10.40;7.93;;;19.70;73.60;;;;;;4960312;28;20246;-80
2023/04/21 10:36:34;;;;;;;9.60;6.83;;;20.00;75.50;;;;;;4967341;28;20210;-79
2023/04/21 10:39:04;;;;;;;12.10;6.73;;;20.10;73.10;;;;;;4967247;28;20205;-78
2023/04/21 10:41:32;;;;;;;9.50;6.53;;;20.30;70.50;;;;;;4970190;28;20207;-79
2023/04/21 10:44:11;;;;;;;7.90;6.50;;;20.20;65.90;;;;;;4973938;28;20212;-78
2023/04/21 10:46:44;;;;;;;8.13;6.73;;;20.10;65.30;;;;;;4975036;28;20275;-79
2023/04/21 10:49:30;;;;;;;7.07;6.37;;;20.00;67.70;;;;;;4968699;28;20676;-79
2023/04/21 10:54:35;;;;;;;6.87;6.10;;;20.10;63.60;;;;;;4968591;28;20203;-78
2023/04/21 10:57:05;;;;;;;10.20;6.57;;;20.10;65.80;;;;;;4967884;28;20222;-77
2023/04/21 10:59:31;;;;;;;8.30;6.63;;;20.30;64.00;;;;;;4977447;28;20237;-79
2023/04/21 11:01:56;;;;;;;9.40;6.30;;;20.30;64.00;;;;;;4976454;28;20771;-80
2023/04/21 11:04:22;;;;;;;6.80;5.67;;;20.40;64.80;;;;;;4973189;28;20202;-80
2023/04/21 11:07:07;;;;;;;6.30;5.53;;;20.50;61.40;;;;;;4976767;28;20203;-80
2023/04/21 11:09:33;;;;;;;7.80;6.93;;;20.60;61.60;;;;;;4978038;28;20349;-80
2023/04/21 11:12:01;;;;;;;7.00;5.30;;;20.70;61.60;;;;;;4974961;28;20207;-80
2023/04/21 11:14:27;;;;;;;6.47;5.87;;;20.90;61.20;;;;;;4969400;28;20705;-81
2023/04/21 11:16:53;;;;;;;8.13;6.20;;;20.60;59.30;;;;;;4974446;28;20509;-80
2023/04/21 11:19:23;;;;;;;7.20;6.50;;;20.80;59.80;;;;;;4978126;28;20287;-76
2023/04/21 11:21:49;;;;;;;7.67;6.93;;;21.00;60.00;;;;;;4975448;28;20565;-80
2023/04/21 11:24:15;;;;;;;6.90;6.23;;;21.10;61.30;;;;;;4976781;28;20199;-78
2023/04/21 11:26:43;;;;;;;6.93;6.13;;;21.40;59.80;;;;;;4972883;28;20213;-78
2023/04/21 11:29:10;;;;;;;7.93;6.50;;;21.50;58.90;;;;;;4979271;28;20300;-78
2023/04/21 11:31:40;;;;;;;7.73;6.77;;;21.30;56.90;;;;;;4976514;28;20203;-78
2023/04/21 11:34:06;;;;;;;7.80;5.73;;;21.30;58.60;;;;;;4977421;28;20700;-78
2023/04/21 11:36:37;;;;;;;6.37;5.23;;;21.40;58.50;;;;;;4978680;28;20208;-78
2023/04/21 11:39:08;;;;;;;6.60;5.63;;;21.70;57.70;;;;;;4973539;28;20274;-78
2023/04/21 11:41:35;;;;;;;6.37;5.77;;;22.00;57.80;;;;;;4972042;28;20744;-76
2023/04/21 11:44:01;;;;;;;6.87;5.67;;;22.30;57.10;;;;;;4975926;28;20678;-77
2023/04/21 11:46:28;;;;;;;6.07;5.47;;;22.50;56.20;;;;;;4975128;28;20202;-78
2023/04/21 11:48:59;;;;;;;6.00;5.40;;;22.60;53.60;;;;;;4980880;28;20589;-78
2023/04/21 11:51:24;;;;;;;6.63;6.03;;;22.50;53.90;;;;;;4978222;28;20202;-77
2023/04/21 11:53:50;;;;;;;6.67;6.07;;;22.30;54.00;;;;;;4979584;28;20264;-78
2023/04/21 11:56:18;;;;;;;7.80;6.27;;;22.30;54.60;;;;;;4976505;28;20897;-78
2023/04/21 11:58:45;;;;;;;8.57;6.40;;;22.80;55.60;;;;;;4980929;28;20627;-78
2023/04/21 12:01:10;;;;;;;7.10;6.37;;;23.20;54.10;;;;;;4981331;28;20211;-79
2023/04/21 12:03:36;;;;;;;14.17;6.63;;;22.80;50.10;;;;;;4980704;28;20200;-78
2023/04/21 12:06:02;;;;;;;6.60;5.90;;;22.10;50.90;;;;;;4974907;28;20291;-77
2023/04/21 12:08:31;;;;;;;7.67;6.90;;;22.30;50.80;;;;;;4980229;28;20638;-77
2023/04/21 12:10:58;;;;;;;9.33;6.50;;;22.80;51.10;;;;;;4978003;28;20199;-79
2023/04/21 12:13:25;;;;;;;9.03;6.07;;;23.00;49.10;;;;;;4973753;28;20212;-79
2023/04/21 12:15:51;;;;;;;6.60;6.03;;;22.90;51.30;;;;;;4984246;28;20311;-79
2023/04/21 12:18:17;;;;;;;8.07;6.50;;;22.80;51.10;;;;;;4978977;28;20645;-78
2023/04/21 12:20:50;;;;;;;8.33;6.50;;;23.20;52.20;;;;;;4971867;28;20201;-79
2023/04/21 12:23:16;;;;;;;9.50;6.77;;;23.60;50.00;;;;;;4977165;28;20199;-80
2023/04/21 12:25:41;;;;;;;8.90;6.73;;;24.00;50.60;;;;;;4980775;28;20208;-81
2023/04/21 12:28:07;;;;;;;9.03;6.90;;;23.40;49.00;;;;;;4973626;28;20218;-82
2023/04/21 12:30:33;;;;;;;7.07;5.93;;;23.20;48.40;;;;;;4952936;28;20235;-80
2023/04/21 12:32:59;;;;;;;23.77;13.47;;;23.50;48.00;;;;;;4968104;28;20348;-77
2023/04/21 12:35:25;;;;;;;7.57;6.60;;;24.40;50.40;;;;;;4971187;28;20203;-78
2023/04/21 12:37:50;;;;;;;6.83;6.13;;;25.40;49.10;;;;;;4971840;28;20209;-78